Denver, Colorado
Traffic Map
Current Weather Conditions
Denver, Colorado
Few Clouds
Few Clouds
69°
Feels Like: 69°
Wind Chill: 69° Ceiling: Unl
Heat Index: 69° Visibility: 10mi
Dew Point: 47° Wind: 6mph
Humidity: 46% Direction: 200° (SSW)
Pressure: 30.23in Gusts: 0mph
Raw Report DataKBKF 220658Z 20005KT 10SM FEW140 FEW220 20/08 A3023 RMK AO2A SLP151 T02040083 403370195
Traffic Incident Summary
Active as of:
Severity:
Category:
InformationThere was an issue retrieving the traffic information for this location. Please try a different location or try again shortly.
Advertisements
Track Severe Weather on mobile